Time,TemperatureF,DewpointF,PressureIn,WindDirection,WindDirectionDegrees,WindSpeedMPH,WindSpeedGustMPH,Humidity,HourlyPrecipIn,Conditions,Clouds,dailyrainin,SoftwareType,DateUTC
2013-09-04 00:01:00,61.4,60.8,29.82,ENE,68,0.0,0.0,98,0.00,,,0.00,Wunderground v.1.15,2013-09-04 04:01:00,
2013-09-04 00:02:00,61.3,60.7,29.82,ENE,68,0.0,0.0,98,0.00,,,0.00,Wunderground v.1.15,2013-09-04 04:02:00,
2013-09-04 00:03:00,61.3,60.7,29.82,ENE,68,0.0,0.0,98,0.00,,,0.00,Wunderground v.1.15,2013-09-04 04:03:00,
2013-09-04 00:05:00,61.2,60.6,29.82,ENE,68,0.0,0.0,98,0.00,,,0.00,Wunderground v.1.15,2013-09-04 04:05:00,
2013-09-04 00:09:00,61.1,60.5,29.82,ENE,68,0.0,0.0,98,0.00,,,0.00,Wunderground v.1.15,2013-09-04 04:09:00,
2013-09-04 00:15:00,61.0,60.4,29.82,ENE,68,0.0,0.0,98,0.00,,,0.00,Wunderground v.1.15,2013-09-04 04:15:00,
2013-09-04 00:21:00,60.8,60.2,29.81,North,352,0.0,0.0,98,0.00,,,0.00,Wunderground v.1.15,2013-09-04 04:21:00,
2013-09-04 00:27:00,60.7,60.1,29.81,North,354,0.0,2.0,98,0.00,,,0.00,Wunderground v.1.15,2013-09-04 04:27:00,
2013-09-04 00:33:00,60.5,59.9,29.81,NE,49,0.0,0.0,98,0.00,,,0.00,Wunderground v.1.15,2013-09-04 04:33:00,
2013-09-04 00:38:00,60.3,59.7,29.81,NW,314,0.0,0.0,98,0.00,,,0.00,Wunderground v.1.15,2013-09-04 04:38:00,
2013-09-04 00:44:00,60.0,59.4,29.81,NW,315,0.0,0.0,98,0.00,,,0.00,Wunderground v.1.15,2013-09-04 04:44:00,
2013-09-04 00:50:00,59.7,59.1,29.81,NW,315,0.0,0.0,98,0.00,,,0.00,Wunderground v.1.15,2013-09-04 04:50:00,
2013-09-04 00:56:00,59.6,59.0,29.82,NW,313,0.0,0.0,98,0.00,,,0.00,Wunderground v.1.15,2013-09-04 04:56:00,
2013-09-04 01:02:00,59.5,58.9,29.82,NW,315,0.0,0.0,98,0.00,,,0.00,Wunderground v.1.15,2013-09-04 05:02:00,
2013-09-04 01:07:00,59.4,58.8,29.82,NW,315,0.0,0.0,98,0.00,,,0.00,Wunderground v.1.15,2013-09-04 05:07:00,
2013-09-04 01:12:00,59.5,58.9,29.82,NW,315,0.0,0.0,98,0.00,,,0.00,Wunderground v.1.15,2013-09-04 05:12:00,
2013-09-04 01:18:00,59.3,58.7,29.82,NW,314,0.0,0.0,98,0.00,,,0.00,Wunderground v.1.15,2013-09-04 05:18:00,
2013-09-04 01:24:00,59.2,58.6,29.82,NW,315,0.0,0.0,98,0.00,,,0.00,Wunderground v.1.15,2013-09-04 05:24:00,
2013-09-04 01:30:00,59.2,58.6,29.82,NW,315,0.0,0.0,98,0.00,,,0.00,Wunderground v.1.15,2013-09-04 05:30:00,
2013-09-04 01:36:00,59.0,58.4,29.82,NW,315,0.0,0.0,98,0.00,,,0.00,Wunderground v.1.15,2013-09-04 05:36:00,
2013-09-04 01:42:00,58.8,58.2,29.82,NW,315,0.0,0.0,98,0.00,,,0.00,Wunderground v.1.15,2013-09-04 05:42:00,
2013-09-04 01:48:00,58.7,58.1,29.82,NW,315,0.0,0.0,98,0.00,,,0.00,Wunderground v.1.15,2013-09-04 05:48:00,
2013-09-04 01:54:00,58.7,58.1,29.83,NW,315,0.0,0.0,98,0.00,,,0.00,Wunderground v.1.15,2013-09-04 05:54:00,
2013-09-04 02:00:00,58.7,58.1,29.83,NW,314,0.0,0.0,98,0.00,,,0.00,Wunderground v.1.15,2013-09-04 06:00:00,
2013-09-04 02:06:00,58.8,58.2,29.83,NW,316,0.0,0.0,98,0.00,,,0.00,Wunderground v.1.15,2013-09-04 06:06:00,
2013-09-04 02:12:00,58.4,57.8,29.83,NW,316,0.0,0.0,98,0.00,,,0.00,Wunderground v.1.15,2013-09-04 06:12:00,
2013-09-04 02:18:00,58.3,57.7,29.83,ENE,68,0.0,1.0,98,0.00,,,0.00,Wunderground v.1.15,2013-09-04 06:18:00,
2013-09-04 02:23:00,58.4,57.8,29.83,ENE,68,0.0,0.0,98,0.00,,,0.00,Wunderground v.1.15,2013-09-04 06:23:00,
2013-09-04 02:29:00,58.4,57.8,29.83,ENE,68,0.0,0.0,98,0.00,,,0.00,Wunderground v.1.15,2013-09-04 06:29:00,
2013-09-04 02:35:00,58.0,57.4,29.83,ENE,68,0.0,0.0,98,0.00,,,0.00,Wunderground v.1.15,2013-09-04 06:35:00,
2013-09-04 02:41:00,57.8,57.2,29.83,ESE,121,0.0,0.0,98,0.00,,,0.00,Wunderground v.1.15,2013-09-04 06:41:00,
2013-09-04 02:47:00,58.0,57.4,29.83,ESE,121,0.0,0.0,98,0.00,,,0.00,Wunderground v.1.15,2013-09-04 06:47:00,
2013-09-04 02:53:00,57.7,57.1,29.83,ESE,121,0.0,0.0,98,0.00,,,0.00,Wunderground v.1.15,2013-09-04 06:53:00,
2013-09-04 02:59:00,57.6,57.0,29.83,ESE,121,0.0,0.0,98,0.00,,,0.00,Wunderground v.1.15,2013-09-04 06:59:00,
2013-09-04 03:05:00,57.5,56.9,29.83,ESE,121,0.0,0.0,98,0.00,,,0.00,Wunderground v.1.15,2013-09-04 07:05:00,
2013-09-04 03:11:00,57.5,56.9,29.83,ESE,121,0.0,0.0,98,0.00,,,0.00,Wunderground v.1.15,2013-09-04 07:11:00,
2013-09-04 03:17:00,57.5,56.9,29.83,ESE,121,0.0,0.0,98,0.00,,,0.00,Wunderground v.1.15,2013-09-04 07:17:00,
2013-09-04 03:22:00,57.3,56.7,29.83,ESE,121,0.0,0.0,98,0.00,,,0.00,Wunderground v.1.15,2013-09-04 07:22:00,
2013-09-04 03:28:00,57.2,56.6,29.83,ESE,117,0.0,0.0,98,0.00,,,0.00,Wunderground v.1.15,2013-09-04 07:28:00,
2013-09-04 03:34:00,57.3,56.7,29.83,ESE,117,0.0,0.0,98,0.00,,,0.00,Wunderground v.1.15,2013-09-04 07:34:00,
2013-09-04 03:40:00,57.2,56.6,29.84,ESE,117,0.0,0.0,98,0.00,,,0.00,Wunderground v.1.15,2013-09-04 07:40:00,
2013-09-04 03:46:00,57.2,56.6,29.84,ESE,117,0.0,0.0,98,0.00,,,0.00,Wunderground v.1.15,2013-09-04 07:46:00,
2013-09-04 03:51:00,57.0,56.4,29.84,ESE,117,0.0,0.0,98,0.00,,,0.00,Wunderground v.1.15,2013-09-04 07:51:00,
2013-09-04 03:57:00,56.9,56.3,29.84,ESE,117,0.0,0.0,98,0.00,,,0.00,Wunderground v.1.15,2013-09-04 07:57:00,
2013-09-04 04:03:00,56.8,56.2,29.84,ESE,117,0.0,0.0,98,0.00,,,0.00,Wunderground v.1.15,2013-09-04 08:03:00,
2013-09-04 04:09:00,56.5,55.9,29.84,ESE,117,0.0,0.0,98,0.00,,,0.00,Wunderground v.1.15,2013-09-04 08:09:00,
2013-09-04 04:14:00,56.2,55.6,29.85,ESE,117,0.0,0.0,98,0.00,,,0.00,Wunderground v.1.15,2013-09-04 08:14:00,
2013-09-04 04:20:00,56.2,55.6,29.85,ESE,117,0.0,0.0,98,0.00,,,0.00,Wunderground v.1.15,2013-09-04 08:20:00,
2013-09-04 04:26:00,56.1,55.5,29.85,ESE,117,0.0,0.0,98,0.00,,,0.00,Wunderground v.1.15,2013-09-04 08:26:00,
2013-09-04 04:32:00,55.7,55.1,29.85,ESE,117,0.0,0.0,98,0.00,,,0.00,Wunderground v.1.15,2013-09-04 08:32:00,
2013-09-04 04:38:00,55.6,55.0,29.85,ESE,117,0.0,0.0,98,0.00,,,0.00,Wunderground v.1.15,2013-09-04 08:38:00,
2013-09-04 04:44:00,55.6,55.0,29.85,ESE,117,0.0,0.0,98,0.00,,,0.00,Wunderground v.1.15,2013-09-04 08:44:00,
2013-09-04 04:50:00,55.5,55.2,29.85,ESE,117,0.0,0.0,99,0.00,,,0.00,Wunderground v.1.15,2013-09-04 08:50:00,
2013-09-04 04:55:00,55.3,54.7,29.85,ESE,117,0.0,0.0,98,0.00,,,0.00,Wunderground v.1.15,2013-09-04 08:55:00,
2013-09-04 05:01:00,55.5,55.2,29.86,ESE,117,0.0,0.0,99,0.00,,,0.00,Wunderground v.1.15,2013-09-04 09:01:00,
2013-09-04 05:06:00,55.5,55.2,29.86,ESE,117,0.0,0.0,99,0.00,,,0.00,Wunderground v.1.15,2013-09-04 09:06:00,
2013-09-04 05:12:00,55.6,55.3,29.86,ESE,117,0.0,0.0,99,0.00,,,0.00,Wunderground v.1.15,2013-09-04 09:12:00,
2013-09-04 05:17:00,55.5,55.2,29.86,ESE,117,0.0,0.0,99,0.00,,,0.00,Wunderground v.1.15,2013-09-04 09:17:00,
2013-09-04 05:23:00,55.4,55.1,29.86,ESE,117,0.0,0.0,99,0.00,,,0.00,Wunderground v.1.15,2013-09-04 09:23:00,
2013-09-04 05:28:00,55.3,55.0,29.86,ESE,117,0.0,0.0,99,0.00,,,0.00,Wunderground v.1.15,2013-09-04 09:28:00,
2013-09-04 05:34:00,55.3,55.0,29.87,ESE,117,0.0,0.0,99,0.00,,,0.00,Wunderground v.1.15,2013-09-04 09:34:00,
2013-09-04 05:40:00,55.2,54.9,29.87,ESE,117,0.0,0.0,99,0.00,,,0.00,Wunderground v.1.15,2013-09-04 09:40:00,
2013-09-04 05:46:00,55.1,54.8,29.86,ESE,117,0.0,0.0,99,0.00,,,0.00,Wunderground v.1.15,2013-09-04 09:46:00,
2013-09-04 05:52:00,55.0,54.7,29.87,ESE,117,0.0,0.0,99,0.00,,,0.00,Wunderground v.1.15,2013-09-04 09:52:00,
2013-09-04 05:58:00,55.1,54.8,29.87,ESE,117,0.0,0.0,99,0.00,,,0.00,Wunderground v.1.15,2013-09-04 09:58:00,
2013-09-04 06:04:00,55.1,54.8,29.87,ESE,117,0.0,0.0,99,0.00,,,0.00,Wunderground v.1.15,2013-09-04 10:04:00,
2013-09-04 06:10:00,55.3,55.0,29.87,ESE,117,0.0,0.0,99,0.00,,,0.00,Wunderground v.1.15,2013-09-04 10:10:00,
2013-09-04 06:16:00,55.3,55.0,29.88,ESE,117,0.0,0.0,99,0.00,,,0.00,Wunderground v.1.15,2013-09-04 10:16:00,
2013-09-04 06:22:00,55.4,55.1,29.88,ESE,117,0.0,0.0,99,0.00,,,0.00,Wunderground v.1.15,2013-09-04 10:22:00,
2013-09-04 06:28:00,55.5,55.2,29.88,ESE,117,0.0,0.0,99,0.00,,,0.00,Wunderground v.1.15,2013-09-04 10:28:00,
2013-09-04 06:33:00,55.3,55.0,29.88,ESE,117,0.0,0.0,99,0.00,,,0.00,Wunderground v.1.15,2013-09-04 10:33:00,
2013-09-04 06:39:00,55.0,54.7,29.88,ESE,117,0.0,0.0,99,0.00,,,0.00,Wunderground v.1.15,2013-09-04 10:39:00,
2013-09-04 06:45:00,54.9,54.6,29.88,ESE,117,0.0,0.0,99,0.00,,,0.00,Wunderground v.1.15,2013-09-04 10:45:00,
2013-09-04 06:51:00,54.9,54.6,29.88,ESE,117,0.0,0.0,99,0.00,,,0.00,Wunderground v.1.15,2013-09-04 10:51:00,
2013-09-04 06:57:00,55.1,54.8,29.89,ESE,117,0.0,0.0,99,0.00,,,0.00,Wunderground v.1.15,2013-09-04 10:57:00,
2013-09-04 07:03:00,55.2,54.9,29.88,ESE,117,0.0,0.0,99,0.00,,,0.00,Wunderground v.1.15,2013-09-04 11:03:00,
2013-09-04 07:09:00,55.5,55.2,29.89,ESE,117,0.0,0.0,99,0.00,,,0.00,Wunderground v.1.15,2013-09-04 11:09:00,
2013-09-04 07:15:00,56.9,56.6,29.89,ESE,117,0.0,0.0,99,0.00,,,0.00,Wunderground v.1.15,2013-09-04 11:15:00,
2013-09-04 07:21:00,58.0,57.7,29.89,ESE,117,0.0,0.0,99,0.00,,,0.00,Wunderground v.1.15,2013-09-04 11:21:00,
2013-09-04 07:27:00,58.7,58.4,29.90,East,96,0.0,0.0,99,0.00,,,0.00,Wunderground v.1.15,2013-09-04 11:27:00,
2013-09-04 07:32:00,59.3,59.0,29.90,NW,322,0.0,0.0,99,0.00,,,0.01,Wunderground v.1.15,2013-09-04 11:32:00,
2013-09-04 07:38:00,60.0,59.7,29.90,ESE,115,0.0,0.0,99,0.00,,,0.01,Wunderground v.1.15,2013-09-04 11:38:00,
2013-09-04 07:44:00,60.2,59.9,29.90,West,278,0.0,1.0,99,0.00,,,0.01,Wunderground v.1.15,2013-09-04 11:44:00,
2013-09-04 07:50:00,61.2,60.9,29.90,North,4,0.0,0.0,99,0.00,,,0.01,Wunderground v.1.15,2013-09-04 11:50:00,
2013-09-04 07:55:00,61.5,61.2,29.90,ENE,68,0.0,0.0,99,0.00,,,0.01,Wunderground v.1.15,2013-09-04 11:55:00,
2013-09-04 08:00:00,61.9,61.3,29.90,WSW,255,0.0,0.0,98,0.00,,,0.01,Wunderground v.1.15,2013-09-04 12:00:00,
2013-09-04 08:06:00,62.0,61.4,29.90,NNE,25,0.0,2.0,98,0.00,,,0.01,Wunderground v.1.15,2013-09-04 12:06:00,
2013-09-04 08:12:00,62.3,61.7,29.90,ENE,60,1.0,2.0,98,0.00,,,0.01,Wunderground v.1.15,2013-09-04 12:12:00,
2013-09-04 08:18:00,62.8,61.9,29.91,NNW,333,1.0,2.0,97,0.00,,,0.01,Wunderground v.1.15,2013-09-04 12:18:00,
2013-09-04 08:23:00,63.2,62.3,29.91,NNE,32,1.0,4.0,97,0.00,,,0.01,Wunderground v.1.15,2013-09-04 12:23:00,
2013-09-04 08:29:00,63.7,62.8,29.91,West,276,1.0,4.0,97,0.00,,,0.01,Wunderground v.1.15,2013-09-04 12:29:00,
2013-09-04 08:34:00,64.0,63.1,29.91,SW,235,1.0,2.0,97,0.00,,,0.01,Wunderground v.1.15,2013-09-04 12:34:00,
2013-09-04 08:40:00,64.6,63.4,29.91,West,281,1.0,1.0,96,0.00,,,0.01,Wunderground v.1.15,2013-09-04 12:40:00,
2013-09-04 08:46:00,65.1,63.6,29.91,NNE,30,1.0,3.0,95,0.00,,,0.01,Wunderground v.1.15,2013-09-04 12:46:00,
2013-09-04 08:52:00,65.4,63.6,29.91,NNW,335,1.0,2.0,94,0.00,,,0.01,Wunderground v.1.15,2013-09-04 12:52:00,
2013-09-04 08:58:00,65.8,63.4,29.92,SW,221,1.0,3.0,92,0.00,,,0.01,Wunderground v.1.15,2013-09-04 12:58:00,
2013-09-04 09:04:00,66.4,64.0,29.92,NNW,335,2.0,4.0,92,0.00,,,0.01,Wunderground v.1.15,2013-09-04 13:04:00,
2013-09-04 09:10:00,67.0,64.0,29.91,NW,320,1.0,2.0,90,0.00,,,0.01,Wunderground v.1.15,2013-09-04 13:10:00,
2013-09-04 09:16:00,67.3,64.3,29.92,WSW,243,1.0,2.0,90,0.00,,,0.01,Wunderground v.1.15,2013-09-04 13:16:00,
2013-09-04 09:22:00,68.1,64.7,29.92,North,358,1.0,1.0,89,0.00,,,0.01,Wunderground v.1.15,2013-09-04 13:22:00,
2013-09-04 09:28:00,68.3,64.3,29.92,WNW,302,1.0,1.0,87,0.00,,,0.01,Wunderground v.1.15,2013-09-04 13:28:00,
2013-09-04 09:33:00,68.6,64.9,29.92,WNW,286,1.0,1.0,88,0.00,,,0.01,Wunderground v.1.15,2013-09-04 13:33:00,
2013-09-04 09:39:00,69.3,64.6,29.92,NE,53,1.0,4.0,85,0.00,,,0.01,Wunderground v.1.15,2013-09-04 13:39:00,
2013-09-04 09:45:00,69.5,64.5,29.92,NNW,338,1.0,1.0,84,0.00,,,0.01,Wunderground v.1.15,2013-09-04 13:45:00,
2013-09-04 09:51:00,70.0,64.9,29.92,WSW,246,1.0,1.0,84,0.00,,,0.01,Wunderground v.1.15,2013-09-04 13:51:00,
2013-09-04 09:57:00,70.4,63.6,29.91,WSW,238,1.0,6.0,79,0.00,,,0.01,Wunderground v.1.15,2013-09-04 13:57:00,
2013-09-04 10:02:00,70.5,64.4,29.91,WNW,293,2.0,2.0,81,0.00,,,0.01,Wunderground v.1.15,2013-09-04 14:02:00,
2013-09-04 10:08:00,70.9,64.8,29.91,West,260,2.0,4.0,81,0.00,,,0.01,Wunderground v.1.15,2013-09-04 14:08:00,
2013-09-04 10:14:00,71.1,64.3,29.91,West,274,2.0,3.0,79,0.00,,,0.01,Wunderground v.1.15,2013-09-04 14:14:00,
2013-09-04 10:20:00,71.3,64.1,29.91,NW,323,2.0,2.0,78,0.00,,,0.01,Wunderground v.1.15,2013-09-04 14:20:00,
2013-09-04 10:26:00,71.5,64.3,29.91,South,183,2.0,4.0,78,0.00,,,0.01,Wunderground v.1.15,2013-09-04 14:26:00,
2013-09-04 10:32:00,72.1,64.9,29.91,NW,312,2.0,3.0,78,0.00,,,0.01,Wunderground v.1.15,2013-09-04 14:32:00,
2013-09-04 10:38:00,72.2,64.2,29.91,NW,318,2.0,4.0,76,0.00,,,0.01,Wunderground v.1.15,2013-09-04 14:38:00,
2013-09-04 10:44:00,72.3,64.3,29.91,NW,318,2.0,5.0,76,0.00,,,0.01,Wunderground v.1.15,2013-09-04 14:44:00,
2013-09-04 10:50:00,72.8,64.8,29.91,West,269,2.0,5.0,76,0.00,,,0.01,Wunderground v.1.15,2013-09-04 14:50:00,
2013-09-04 10:56:00,73.2,64.0,29.91,North,359,2.0,5.0,73,0.00,,,0.01,Wunderground v.1.15,2013-09-04 14:56:00,
2013-09-04 11:02:00,73.6,64.4,29.91,WNW,284,1.0,2.0,73,0.00,,,0.01,Wunderground v.1.15,2013-09-04 15:02:00,
2013-09-04 11:08:00,74.1,64.5,29.90,NW,321,1.0,3.0,72,0.00,,,0.01,Wunderground v.1.15,2013-09-04 15:08:00,
2013-09-04 11:14:00,74.1,64.1,29.90,NNW,328,2.0,4.0,71,0.00,,,0.01,Wunderground v.1.15,2013-09-04 15:14:00,
2013-09-04 11:20:00,74.3,64.3,29.90,West,263,2.0,2.0,71,0.00,,,0.01,Wunderground v.1.15,2013-09-04 15:20:00,
2013-09-04 11:26:00,74.7,64.3,29.90,SW,215,2.0,6.0,70,0.00,,,0.01,Wunderground v.1.15,2013-09-04 15:26:00,
2013-09-04 11:32:00,74.7,63.9,29.90,West,270,2.0,2.0,69,0.00,,,0.01,Wunderground v.1.15,2013-09-04 15:32:00,
2013-09-04 11:38:00,74.6,64.6,29.90,WSW,255,2.0,4.0,71,0.00,,,0.01,Wunderground v.1.15,2013-09-04 15:38:00,
2013-09-04 11:44:00,74.6,63.3,29.90,NE,46,2.0,5.0,68,0.00,,,0.01,Wunderground v.1.15,2013-09-04 15:44:00,
2013-09-04 11:49:00,74.9,64.5,29.90,SSW,201,2.0,5.0,70,0.00,,,0.01,Wunderground v.1.15,2013-09-04 15:49:00,
2013-09-04 11:55:00,75.0,63.7,29.90,SW,228,2.0,3.0,68,0.00,,,0.01,Wunderground v.1.15,2013-09-04 15:55:00,
2013-09-04 12:01:00,75.4,63.2,29.91,NNE,12,2.0,7.0,66,0.00,,,0.01,Wunderground v.1.15,2013-09-04 16:01:00,
2013-09-04 12:07:00,75.6,63.4,29.90,WSW,254,2.0,7.0,66,0.00,,,0.01,Wunderground v.1.15,2013-09-04 16:07:00,
2013-09-04 12:13:00,76.1,63.9,29.90,NNE,26,2.0,5.0,66,0.00,,,0.01,Wunderground v.1.15,2013-09-04 16:13:00,
2013-09-04 12:19:00,75.9,61.9,29.90,North,9,2.0,5.0,62,0.00,,,0.01,Wunderground v.1.15,2013-09-04 16:19:00,
2013-09-04 12:25:00,75.8,62.8,29.89,South,189,2.0,7.0,64,0.00,,,0.01,Wunderground v.1.15,2013-09-04 16:25:00,
2013-09-04 12:31:00,76.1,62.6,29.89,NNE,13,2.0,5.0,63,0.00,,,0.01,Wunderground v.1.15,2013-09-04 16:31:00,
2013-09-04 12:37:00,76.3,63.2,29.89,NNW,345,2.0,5.0,64,0.00,,,0.01,Wunderground v.1.15,2013-09-04 16:37:00,
2013-09-04 12:43:00,76.2,63.1,29.89,NNE,20,2.0,5.0,64,0.00,,,0.01,Wunderground v.1.15,2013-09-04 16:43:00,
2013-09-04 12:49:00,76.6,64.8,29.89,West,269,2.0,5.0,67,0.00,,,0.01,Wunderground v.1.15,2013-09-04 16:49:00,
2013-09-04 12:55:00,76.6,62.1,29.89,NW,314,2.0,5.0,61,0.00,,,0.01,Wunderground v.1.15,2013-09-04 16:55:00,
2013-09-04 13:01:00,76.4,62.4,29.89,SSE,162,3.0,5.0,62,0.00,,,0.01,Wunderground v.1.15,2013-09-04 17:01:00,
2013-09-04 13:06:00,76.7,62.7,29.89,West,259,2.0,6.0,62,0.00,,,0.01,Wunderground v.1.15,2013-09-04 17:06:00,
2013-09-04 13:12:00,76.7,61.8,29.90,West,273,2.0,5.0,60,0.00,,,0.01,Wunderground v.1.15,2013-09-04 17:12:00,
2013-09-04 13:18:00,76.6,61.2,29.89,WSW,243,3.0,5.0,59,0.00,,,0.01,Wunderground v.1.15,2013-09-04 17:18:00,
2013-09-04 13:23:00,76.8,61.9,29.89,West,281,3.0,5.0,60,0.00,,,0.01,Wunderground v.1.15,2013-09-04 17:23:00,
2013-09-04 13:29:00,76.8,60.9,29.89,NNE,15,3.0,7.0,58,0.00,,,0.01,Wunderground v.1.15,2013-09-04 17:29:00,
2013-09-04 13:34:00,76.7,60.8,29.89,NE,39,3.0,5.0,58,0.00,,,0.01,Wunderground v.1.15,2013-09-04 17:34:00,
2013-09-04 13:40:00,77.2,61.8,29.89,SW,226,3.0,3.0,59,0.00,,,0.01,Wunderground v.1.15,2013-09-04 17:40:00,
2013-09-04 13:46:00,77.3,61.9,29.89,SW,235,3.0,5.0,59,0.00,,,0.01,Wunderground v.1.15,2013-09-04 17:46:00,
2013-09-04 13:52:00,77.9,62.9,29.89,WSW,248,2.0,5.0,60,0.00,,,0.01,Wunderground v.1.15,2013-09-04 17:52:00,
2013-09-04 13:58:00,78.1,62.1,29.89,West,278,2.0,5.0,58,0.00,,,0.01,Wunderground v.1.15,2013-09-04 17:58:00,
2013-09-04 14:04:00,78.5,63.0,29.89,WNW,284,3.0,5.0,59,0.00,,,0.01,Wunderground v.1.15,2013-09-04 18:04:00,
2013-09-04 14:10:00,78.5,63.5,29.89,NNE,29,2.0,2.0,60,0.00,,,0.01,Wunderground v.1.15,2013-09-04 18:10:00,
2013-09-04 14:16:00,78.5,62.0,29.89,West,273,3.0,6.0,57,0.00,,,0.01,Wunderground v.1.15,2013-09-04 18:16:00,
2013-09-04 14:22:00,78.4,62.9,29.89,West,276,3.0,5.0,59,0.00,,,0.01,Wunderground v.1.15,2013-09-04 18:22:00,
2013-09-04 14:28:00,78.2,62.7,29.89,West,266,3.0,5.0,59,0.00,,,0.01,Wunderground v.1.15,2013-09-04 18:28:00,
2013-09-04 14:34:00,78.7,62.2,29.89,WSW,246,2.0,5.0,57,0.00,,,0.01,Wunderground v.1.15,2013-09-04 18:34:00,
2013-09-04 14:39:00,78.6,64.0,29.89,West,261,3.0,5.0,61,0.00,,,0.01,Wunderground v.1.15,2013-09-04 18:39:00,
2013-09-04 14:45:00,78.6,64.0,29.89,NNW,339,3.0,6.0,61,0.00,,,0.01,Wunderground v.1.15,2013-09-04 18:45:00,
2013-09-04 14:51:00,78.8,63.3,29.88,West,280,3.0,5.0,59,0.00,,,0.01,Wunderground v.1.15,2013-09-04 18:51:00,
2013-09-04 14:57:00,79.2,62.1,29.89,SW,218,2.0,7.0,56,0.00,,,0.01,Wunderground v.1.15,2013-09-04 18:57:00,
2013-09-04 15:03:00,79.1,62.6,29.89,NNW,334,2.0,5.0,57,0.00,,,0.01,Wunderground v.1.15,2013-09-04 19:03:00,
2013-09-04 15:09:00,79.2,63.1,29.88,West,266,2.0,6.0,58,0.00,,,0.01,Wunderground v.1.15,2013-09-04 19:09:00,
2013-09-04 15:15:00,79.3,63.2,29.88,West,260,2.0,5.0,58,0.00,,,0.01,Wunderground v.1.15,2013-09-04 19:15:00,
2013-09-04 15:21:00,79.4,62.3,29.88,West,276,3.0,5.0,56,0.00,,,0.01,Wunderground v.1.15,2013-09-04 19:21:00,
2013-09-04 15:27:00,79.1,63.1,29.88,WSW,243,2.0,6.0,58,0.00,,,0.01,Wunderground v.1.15,2013-09-04 19:27:00,
2013-09-04 15:33:00,79.6,62.5,29.88,SW,231,2.0,5.0,56,0.00,,,0.01,Wunderground v.1.15,2013-09-04 19:33:00,
2013-09-04 15:39:00,80.3,64.2,29.88,WNW,301,1.0,5.0,58,0.00,,,0.01,Wunderground v.1.15,2013-09-04 19:39:00,
2013-09-04 15:45:00,80.2,64.1,29.88,SW,222,2.0,5.0,58,0.00,,,0.01,Wunderground v.1.15,2013-09-04 19:45:00,
2013-09-04 15:51:00,80.1,63.0,29.88,WSW,253,2.0,5.0,56,0.00,,,0.01,Wunderground v.1.15,2013-09-04 19:51:00,
2013-09-04 15:57:00,79.8,63.2,29.88,SSW,211,3.0,5.0,57,0.00,,,0.01,Wunderground v.1.15,2013-09-04 19:57:00,
2013-09-04 16:02:00,79.6,63.0,29.88,North,1,3.0,5.0,57,0.00,,,0.01,Wunderground v.1.15,2013-09-04 20:02:00,
2013-09-04 16:08:00,79.5,62.4,29.88,SSW,211,3.0,5.0,56,0.00,,,0.01,Wunderground v.1.15,2013-09-04 20:08:00,
2013-09-04 16:14:00,79.8,63.2,29.88,WNW,301,3.0,5.0,57,0.00,,,0.01,Wunderground v.1.15,2013-09-04 20:14:00,
2013-09-04 16:20:00,79.8,63.2,29.87,WSW,239,2.0,5.0,57,0.00,,,0.01,Wunderground v.1.15,2013-09-04 20:20:00,
2013-09-04 16:26:00,80.0,64.4,29.88,SSW,207,2.0,5.0,59,0.00,,,0.01,Wunderground v.1.15,2013-09-04 20:26:00,
2013-09-04 16:33:00,79.8,61.7,29.88,SW,219,2.0,5.0,54,0.00,,,0.01,Wunderground v.1.15,2013-09-04 20:33:00,
2013-09-04 16:39:00,79.6,61.5,29.88,WNW,294,3.0,5.0,54,0.00,,,0.01,Wunderground v.1.15,2013-09-04 20:39:00,
2013-09-04 16:44:00,79.7,62.1,29.88,South,184,3.0,5.0,55,0.00,,,0.01,Wunderground v.1.15,2013-09-04 20:44:00,
2013-09-04 16:50:00,79.8,61.1,29.87,WNW,282,2.0,5.0,53,0.00,,,0.01,Wunderground v.1.15,2013-09-04 20:50:00,
2013-09-04 16:56:00,79.7,60.5,29.87,WSW,254,2.0,5.0,52,0.00,,,0.01,Wunderground v.1.15,2013-09-04 20:56:00,
2013-09-04 17:01:00,79.5,60.3,29.87,West,269,2.0,5.0,52,0.00,,,0.01,Wunderground v.1.15,2013-09-04 21:01:00,
2013-09-04 17:07:00,79.3,60.7,29.87,South,179,2.0,5.0,53,0.00,,,0.01,Wunderground v.1.15,2013-09-04 21:07:00,
2013-09-04 17:13:00,79.5,62.4,29.87,WSW,242,2.0,5.0,56,0.00,,,0.01,Wunderground v.1.15,2013-09-04 21:13:00,
2013-09-04 17:19:00,79.5,62.4,29.87,WSW,256,1.0,5.0,56,0.00,,,0.01,Wunderground v.1.15,2013-09-04 21:19:00,
2013-09-04 17:25:00,79.4,64.8,29.87,WSW,239,2.0,5.0,61,0.00,,,0.01,Wunderground v.1.15,2013-09-04 21:25:00,
2013-09-04 17:30:00,78.9,65.7,29.87,SW,217,1.0,1.0,64,0.00,,,0.01,Wunderground v.1.15,2013-09-04 21:30:00,
2013-09-04 17:36:00,78.5,66.2,29.87,SSW,208,1.0,5.0,66,0.00,,,0.01,Wunderground v.1.15,2013-09-04 21:36:00,
2013-09-04 17:42:00,78.1,66.2,29.87,West,262,1.0,5.0,67,0.00,,,0.01,Wunderground v.1.15,2013-09-04 21:42:00,
2013-09-04 17:48:00,78.5,65.8,29.87,SW,232,1.0,5.0,65,0.00,,,0.01,Wunderground v.1.15,2013-09-04 21:48:00,
2013-09-04 17:54:00,78.3,66.4,29.87,SW,235,1.0,5.0,67,0.00,,,0.01,Wunderground v.1.15,2013-09-04 21:54:00,
2013-09-04 18:00:00,78.3,66.4,29.87,WSW,256,1.0,5.0,67,0.00,,,0.01,Wunderground v.1.15,2013-09-04 22:00:00,
2013-09-04 18:06:00,77.9,66.1,29.87,West,262,1.0,5.0,67,0.00,,,0.01,Wunderground v.1.15,2013-09-04 22:06:00,
2013-09-04 18:12:00,77.2,65.4,29.87,WSW,249,2.0,5.0,67,0.00,,,0.01,Wunderground v.1.15,2013-09-04 22:12:00,
2013-09-04 18:18:00,76.8,65.4,29.87,West,271,2.0,5.0,68,0.00,,,0.01,Wunderground v.1.15,2013-09-04 22:18:00,
2013-09-04 18:23:00,76.4,64.6,29.87,SW,236,1.0,5.0,67,0.00,,,0.01,Wunderground v.1.15,2013-09-04 22:23:00,
2013-09-04 18:29:00,75.7,64.4,29.87,SW,228,2.0,5.0,68,0.00,,,0.01,Wunderground v.1.15,2013-09-04 22:29:00,
2013-09-04 18:34:00,75.0,64.1,29.87,WSW,246,2.0,5.0,69,0.00,,,0.01,Wunderground v.1.15,2013-09-04 22:34:00,
2013-09-04 18:40:00,74.3,63.9,29.87,West,269,1.0,5.0,70,0.00,,,0.01,Wunderground v.1.15,2013-09-04 22:40:00,
2013-09-04 18:46:00,73.3,63.3,29.88,WSW,256,1.0,5.0,71,0.00,,,0.01,Wunderground v.1.15,2013-09-04 22:46:00,
2013-09-04 18:52:00,72.5,63.4,29.88,SW,214,0.0,5.0,73,0.00,,,0.01,Wunderground v.1.15,2013-09-04 22:52:00,
2013-09-04 18:58:00,71.6,63.3,29.88,SW,219,0.0,5.0,75,0.00,,,0.01,Wunderground v.1.15,2013-09-04 22:58:00,
2013-09-04 19:04:00,70.6,63.0,29.88,SW,219,0.0,5.0,77,0.00,,,0.01,Wunderground v.1.15,2013-09-04 23:04:00,
2013-09-04 19:09:00,69.3,63.2,29.88,SW,218,0.0,5.0,81,0.00,,,0.01,Wunderground v.1.15,2013-09-04 23:09:00,
2013-09-04 19:15:00,68.2,62.8,29.88,SW,218,0.0,5.0,83,0.00,,,0.01,Wunderground v.1.15,2013-09-04 23:15:00,
2013-09-04 19:21:00,67.3,63.3,29.88,SW,218,0.0,5.0,87,0.00,,,0.01,Wunderground v.1.15,2013-09-04 23:21:00,
2013-09-04 19:27:00,66.6,62.9,29.88,SW,218,0.0,5.0,88,0.00,,,0.01,Wunderground v.1.15,2013-09-04 23:27:00,
2013-09-04 19:33:00,65.9,62.6,29.88,NNE,16,1.0,5.0,89,0.00,,,0.01,Wunderground v.1.15,2013-09-04 23:33:00,
2013-09-04 19:39:00,65.3,62.3,29.88,NNE,16,0.0,5.0,90,0.00,,,0.01,Wunderground v.1.15,2013-09-04 23:39:00,
2013-09-04 19:45:00,64.8,62.1,29.88,NNE,16,0.0,5.0,91,0.00,,,0.01,Wunderground v.1.15,2013-09-04 23:45:00,
2013-09-04 19:51:00,64.4,62.0,29.89,NNE,16,0.0,5.0,92,0.00,,,0.01,Wunderground v.1.15,2013-09-04 23:51:00,
2013-09-04 19:57:00,63.9,61.8,29.89,NNE,16,0.0,5.0,93,0.00,,,0.01,Wunderground v.1.15,2013-09-04 23:57:00,
2013-09-04 20:03:00,63.6,61.5,29.89,NNE,16,0.0,5.0,93,0.00,,,0.01,Wunderground v.1.15,2013-09-05 00:03:00,
2013-09-04 20:08:00,63.3,61.5,29.90,NNE,16,0.0,5.0,94,0.00,,,0.01,Wunderground v.1.15,2013-09-05 00:08:00,
2013-09-04 20:14:00,62.9,61.1,29.90,NNE,17,0.0,5.0,94,0.00,,,0.01,Wunderground v.1.15,2013-09-05 00:14:00,
2013-09-04 20:20:00,62.8,61.0,29.90,NNE,16,0.0,5.0,94,0.00,,,0.01,Wunderground v.1.15,2013-09-05 00:20:00,
2013-09-04 20:26:00,62.6,61.1,29.90,NNE,16,0.0,5.0,95,0.00,,,0.01,Wunderground v.1.15,2013-09-05 00:26:00,
2013-09-04 20:32:00,62.4,60.9,29.90,NNE,16,0.0,5.0,95,0.00,,,0.01,Wunderground v.1.15,2013-09-05 00:32:00,
2013-09-04 20:38:00,62.1,60.7,29.91,NNE,16,0.0,5.0,95,0.00,,,0.01,Wunderground v.1.15,2013-09-05 00:38:00,
2013-09-04 20:44:00,61.8,60.4,29.91,NNE,33,0.0,5.0,95,0.00,,,0.01,Wunderground v.1.15,2013-09-05 00:44:00,
2013-09-04 20:50:00,61.7,60.3,29.91,NE,36,0.0,5.0,95,0.00,,,0.01,Wunderground v.1.15,2013-09-05 00:50:00,
2013-09-04 20:56:00,61.5,60.1,29.91,NE,43,1.0,5.0,95,0.00,,,0.01,Wunderground v.1.15,2013-09-05 00:56:00,
2013-09-04 21:02:00,61.4,60.0,29.91,NE,43,0.0,5.0,95,0.00,,,0.01,Wunderground v.1.15,2013-09-05 01:02:00,
2013-09-04 21:08:00,61.3,60.2,29.91,NE,43,0.0,5.0,96,0.00,,,0.01,Wunderground v.1.15,2013-09-05 01:08:00,
2013-09-04 21:14:00,61.2,60.1,29.91,NNE,26,1.0,5.0,96,0.00,,,0.01,Wunderground v.1.15,2013-09-05 01:14:00,
2013-09-04 21:20:00,61.2,60.1,29.91,ENE,68,1.0,5.0,96,0.00,,,0.01,Wunderground v.1.15,2013-09-05 01:20:00,
2013-09-04 21:26:00,61.1,60.0,29.91,ENE,68,1.0,5.0,96,0.00,,,0.01,Wunderground v.1.15,2013-09-05 01:26:00,
2013-09-04 21:32:00,61.1,60.0,29.91,ENE,65,1.0,5.0,96,0.00,,,0.01,Wunderground v.1.15,2013-09-05 01:32:00,
2013-09-04 21:37:00,61.0,59.9,29.91,ENE,65,1.0,5.0,96,0.00,,,0.01,Wunderground v.1.15,2013-09-05 01:37:00,
2013-09-04 21:42:00,61.0,59.9,29.91,ENE,65,0.0,5.0,96,0.00,,,0.01,Wunderground v.1.15,2013-09-05 01:42:00,
2013-09-04 21:48:00,61.0,59.9,29.91,ENE,65,0.0,5.0,96,0.00,,,0.01,Wunderground v.1.15,2013-09-05 01:48:00,
2013-09-04 21:54:00,60.9,59.8,29.91,ENE,65,0.0,5.0,96,0.00,,,0.01,Wunderground v.1.15,2013-09-05 01:54:00,
2013-09-04 22:00:00,60.7,59.6,29.92,ENE,65,0.0,5.0,96,0.00,,,0.01,Wunderground v.1.15,2013-09-05 02:00:00,
2013-09-04 22:06:00,60.4,59.3,29.92,ENE,65,0.0,5.0,96,0.00,,,0.01,Wunderground v.1.15,2013-09-05 02:06:00,
2013-09-04 22:12:00,60.3,59.2,29.92,ENE,65,0.0,5.0,96,0.00,,,0.01,Wunderground v.1.15,2013-09-05 02:12:00,
2013-09-04 22:18:00,60.2,59.1,29.92,NE,49,0.0,5.0,96,0.00,,,0.01,Wunderground v.1.15,2013-09-05 02:18:00,
2013-09-04 22:24:00,60.2,59.1,29.92,NE,49,0.0,5.0,96,0.00,,,0.01,Wunderground v.1.15,2013-09-05 02:24:00,
2013-09-04 22:30:00,60.1,59.2,29.92,NE,39,0.0,5.0,97,0.00,,,0.01,Wunderground v.1.15,2013-09-05 02:30:00,
2013-09-04 22:36:00,60.1,59.2,29.92,NE,39,0.0,5.0,97,0.00,,,0.01,Wunderground v.1.15,2013-09-05 02:36:00,
2013-09-04 22:42:00,59.9,59.0,29.92,NE,39,0.0,5.0,97,0.00,,,0.01,Wunderground v.1.15,2013-09-05 02:42:00,
2013-09-04 22:48:00,59.8,58.9,29.92,NE,39,0.0,5.0,97,0.00,,,0.01,Wunderground v.1.15,2013-09-05 02:48:00,
2013-09-04 22:54:00,59.6,58.7,29.92,NE,39,0.0,5.0,97,0.00,,,0.01,Wunderground v.1.15,2013-09-05 02:54:00,
2013-09-04 22:59:00,59.5,58.6,29.92,NE,37,0.0,5.0,97,0.00,,,0.01,Wunderground v.1.15,2013-09-05 02:59:00,
2013-09-04 23:05:00,59.3,58.4,29.92,NNE,33,0.0,5.0,97,0.00,,,0.01,Wunderground v.1.15,2013-09-05 03:05:00,
2013-09-04 23:11:00,59.4,58.5,29.92,NNE,33,0.0,0.0,97,0.00,,,0.01,Wunderground v.1.15,2013-09-05 03:11:00,
2013-09-04 23:17:00,59.3,58.4,29.92,NNE,33,0.0,0.0,97,0.00,,,0.01,Wunderground v.1.15,2013-09-05 03:17:00,
2013-09-04 23:22:00,59.3,58.4,29.92,NNE,33,0.0,0.0,97,0.00,,,0.01,Wunderground v.1.15,2013-09-05 03:22:00,
2013-09-04 23:28:00,59.2,58.3,29.92,NNE,33,0.0,0.0,97,0.00,,,0.01,Wunderground v.1.15,2013-09-05 03:28:00,
2013-09-04 23:34:00,59.1,58.2,29.92,NNE,33,0.0,0.0,97,0.00,,,0.01,Wunderground v.1.15,2013-09-05 03:34:00,
2013-09-04 23:40:00,59.0,58.2,29.92,NNE,33,0.0,0.0,97,0.00,,,0.01,Wunderground v.1.15,2013-09-05 03:40:00,
2013-09-04 23:46:00,59.0,58.2,29.92,NNE,33,0.0,0.0,97,0.00,,,0.01,Wunderground v.1.15,2013-09-05 03:46:00,
2013-09-04 23:52:00,58.8,58.0,29.92,NNE,33,0.0,0.0,97,0.00,,,0.01,Wunderground v.1.15,2013-09-05 03:52:00,
2013-09-04 23:57:00,58.7,57.9,29.92,NNE,33,0.0,0.0,97,0.00,,,0.01,Wunderground v.1.15,2013-09-05 03:57:00,